sensor_id;sensor_type;location;lat;lon;timestamp;pressure;altitude;pressure_sealevel;temperature;humidity
41636;BME280;27623;51.966;4.602;2023-04-24T00:00:18;64311.25;;;10.55;100.00
41636;BME280;27623;51.966;4.602;2023-04-24T00:02:44;64332.34;;;10.58;100.00
41636;BME280;27623;51.966;4.602;2023-04-24T00:05:14;64346.34;;;10.69;100.00
41636;BME280;27623;51.966;4.602;2023-04-24T00:07:40;64322.47;;;10.71;100.00
41636;BME280;27623;51.966;4.602;2023-04-24T00:10:06;64339.78;;;10.70;100.00
41636;BME280;27623;51.966;4.602;2023-04-24T00:12:32;64346.50;;;10.72;100.00
41636;BME280;27623;51.966;4.602;2023-04-24T00:15:00;64323.72;;;10.81;100.00
41636;BME280;27623;51.966;4.602;2023-04-24T00:17:28;64350.09;;;10.87;100.00
41636;BME280;27623;51.966;4.602;2023-04-24T00:19:54;64331.38;;;10.81;100.00
41636;BME280;27623;51.966;4.602;2023-04-24T00:22:26;64371.78;;;10.90;100.00
41636;BME280;27623;51.966;4.602;2023-04-24T00:24:54;64344.09;;;10.88;100.00
41636;BME280;27623;51.966;4.602;2023-04-24T00:27:20;64337.53;;;10.89;100.00
41636;BME280;27623;51.966;4.602;2023-04-24T00:29:45;64326.50;;;10.70;100.00
41636;BME280;27623;51.966;4.602;2023-04-24T00:32:11;64288.09;;;10.67;100.00
41636;BME280;27623;51.966;4.602;2023-04-24T00:34:37;64321.38;;;10.70;100.00
41636;BME280;27623;51.966;4.602;2023-04-24T00:37:02;64274.13;;;10.49;100.00
41636;BME280;27623;51.966;4.602;2023-04-24T00:39:27;64304.50;;;10.47;100.00
41636;BME280;27623;51.966;4.602;2023-04-24T00:41:55;64310.66;;;10.62;100.00
41636;BME280;27623;51.966;4.602;2023-04-24T00:44:21;64290.88;;;10.48;100.00
41636;BME280;27623;51.966;4.602;2023-04-24T00:46:47;64328.13;;;10.64;100.00
41636;BME280;27623;51.966;4.602;2023-04-24T00:49:18;64309.78;;;10.49;100.00
41636;BME280;27623;51.966;4.602;2023-04-24T00:51:43;64311.63;;;10.46;100.00
41636;BME280;27623;51.966;4.602;2023-04-24T00:54:11;64308.34;;;10.50;100.00
41636;BME280;27623;51.966;4.602;2023-04-24T00:56:36;64323.97;;;10.48;100.00
41636;BME280;27623;51.966;4.602;2023-04-24T00:59:02;64305.41;;;10.52;100.00
41636;BME280;27623;51.966;4.602;2023-04-24T01:01:27;64280.84;;;10.51;100.00
41636;BME280;27623;51.966;4.602;2023-04-24T01:03:53;64301.78;;;10.51;100.00
41636;BME280;27623;51.966;4.602;2023-04-24T01:06:19;64289.44;;;10.35;100.00
41636;BME280;27623;51.966;4.602;2023-04-24T01:08:46;64322.16;;;10.44;100.00
41636;BME280;27623;51.966;4.602;2023-04-24T01:11:13;64333.81;;;10.57;100.00
41636;BME280;27623;51.966;4.602;2023-04-24T01:13:39;64322.84;;;10.61;100.00
41636;BME280;27623;51.966;4.602;2023-04-24T01:16:05;64296.66;;;10.65;100.00
41636;BME280;27623;51.966;4.602;2023-04-24T01:18:30;64294.13;;;10.51;100.00
41636;BME280;27623;51.966;4.602;2023-04-24T01:20:59;64319.94;;;10.63;100.00
41636;BME280;27623;51.966;4.602;2023-04-24T01:23:27;64343.25;;;10.61;100.00
41636;BME280;27623;51.966;4.602;2023-04-24T01:25:52;64343.41;;;10.64;100.00
41636;BME280;27623;51.966;4.602;2023-04-24T01:28:18;64315.03;;;10.66;100.00
41636;BME280;27623;51.966;4.602;2023-04-24T01:30:44;64319.75;;;10.75;100.00
41636;BME280;27623;51.966;4.602;2023-04-24T01:33:09;64324.50;;;10.70;100.00
41636;BME280;27623;51.966;4.602;2023-04-24T01:35:35;64326.31;;;10.67;100.00
41636;BME280;27623;51.966;4.602;2023-04-24T01:38:02;64291.72;;;10.68;100.00
41636;BME280;27623;51.966;4.602;2023-04-24T01:40:28;64334.50;;;10.60;100.00
41636;BME280;27623;51.966;4.602;2023-04-24T01:42:53;64313.06;;;10.59;100.00
41636;BME280;27623;51.966;4.602;2023-04-24T01:45:18;64338.31;;;10.71;100.00
41636;BME280;27623;51.966;4.602;2023-04-24T01:47:45;64326.84;;;10.75;100.00
41636;BME280;27623;51.966;4.602;2023-04-24T01:50:12;64355.78;;;10.66;100.00
41636;BME280;27623;51.966;4.602;2023-04-24T01:52:40;64351.44;;;10.69;100.00
41636;BME280;27623;51.966;4.602;2023-04-24T01:55:06;64291.59;;;10.58;100.00
41636;BME280;27623;51.966;4.602;2023-04-24T01:57:32;64275.94;;;10.53;100.00
41636;BME280;27623;51.966;4.602;2023-04-24T01:59:58;64306.47;;;10.60;100.00
41636;BME280;27623;51.966;4.602;2023-04-24T02:02:23;64308.50;;;10.53;100.00
41636;BME280;27623;51.966;4.602;2023-04-24T02:04:52;64331.25;;;10.43;100.00
41636;BME280;27623;51.966;4.602;2023-04-24T02:07:20;64323.78;;;10.53;100.00
41636;BME280;27623;51.966;4.602;2023-04-24T02:09:46;64305.59;;;10.48;100.00
41636;BME280;27623;51.966;4.602;2023-04-24T02:12:11;64323.78;;;10.60;100.00
41636;BME280;27623;51.966;4.602;2023-04-24T02:14:37;64313.44;;;10.50;100.00
41636;BME280;27623;51.966;4.602;2023-04-24T02:17:02;64285.78;;;10.48;100.00
41636;BME280;27623;51.966;4.602;2023-04-24T02:19:28;64269.41;;;10.40;100.00
41636;BME280;27623;51.966;4.602;2023-04-24T02:21:53;64307.78;;;10.50;100.00
41636;BME280;27623;51.966;4.602;2023-04-24T02:24:20;64284.88;;;10.43;100.00
41636;BME280;27623;51.966;4.602;2023-04-24T02:26:46;64302.69;;;10.43;100.00
41636;BME280;27623;51.966;4.602;2023-04-24T02:29:11;64279.06;;;10.40;100.00
41636;BME280;27623;51.966;4.602;2023-04-24T02:31:37;64287.81;;;10.33;100.00
41636;BME280;27623;51.966;4.602;2023-04-24T02:34:04;64269.06;;;10.35;100.00
41636;BME280;27623;51.966;4.602;2023-04-24T02:36:29;64272.72;;;10.36;100.00
41636;BME280;27623;51.966;4.602;2023-04-24T02:38:55;64252.47;;;10.46;100.00
41636;BME280;27623;51.966;4.602;2023-04-24T02:41:20;64317.25;;;10.47;100.00
41636;BME280;27623;51.966;4.602;2023-04-24T02:43:46;64296.88;;;10.47;100.00
41636;BME280;27623;51.966;4.602;2023-04-24T02:46:11;64289.41;;;10.49;100.00
41636;BME280;27623;51.966;4.602;2023-04-24T02:48:36;64321.06;;;10.50;100.00
41636;BME280;27623;51.966;4.602;2023-04-24T02:51:05;64299.59;;;10.42;100.00
41636;BME280;27623;51.966;4.602;2023-04-24T02:53:32;64346.56;;;10.43;100.00
41636;BME280;27623;51.966;4.602;2023-04-24T02:55:57;64327.25;;;10.51;100.00
41636;BME280;27623;51.966;4.602;2023-04-24T02:58:25;64290.31;;;10.48;100.00
41636;BME280;27623;51.966;4.602;2023-04-24T03:00:53;64287.41;;;10.50;100.00
41636;BME280;27623;51.966;4.602;2023-04-24T03:03:22;64307.59;;;10.47;100.00
41636;BME280;27623;51.966;4.602;2023-04-24T03:05:47;64319.81;;;10.47;100.00
41636;BME280;27623;51.966;4.602;2023-04-24T03:08:13;64309.44;;;10.44;100.00
41636;BME280;27623;51.966;4.602;2023-04-24T03:10:39;64284.16;;;10.40;100.00
41636;BME280;27623;51.966;4.602;2023-04-24T03:13:04;64342.72;;;10.47;100.00
41636;BME280;27623;51.966;4.602;2023-04-24T03:15:30;64305.06;;;10.47;100.00
41636;BME280;27623;51.966;4.602;2023-04-24T03:17:55;64333.09;;;10.47;100.00
41636;BME280;27623;51.966;4.602;2023-04-24T03:20:21;64308.34;;;10.50;100.00
41636;BME280;27623;51.966;4.602;2023-04-24T03:22:46;64289.78;;;10.40;100.00
41636;BME280;27623;51.966;4.602;2023-04-24T03:25:11;64334.19;;;10.48;100.00
41636;BME280;27623;51.966;4.602;2023-04-24T03:27:37;64324.38;;;10.39;100.00
41636;BME280;27623;51.966;4.602;2023-04-24T03:30:03;64299.28;;;10.37;100.00
41636;BME280;27623;51.966;4.602;2023-04-24T03:32:28;64305.63;;;10.33;100.00
41636;BME280;27623;51.966;4.602;2023-04-24T03:34:54;64289.09;;;10.37;100.00
41636;BME280;27623;51.966;4.602;2023-04-24T03:37:22;64295.63;;;10.29;100.00
41636;BME280;27623;51.966;4.602;2023-04-24T03:39:47;64300.19;;;10.36;100.00
41636;BME280;27623;51.966;4.602;2023-04-24T03:42:15;64282.69;;;10.41;100.00
41636;BME280;27623;51.966;4.602;2023-04-24T03:44:42;64298.19;;;10.36;100.00
41636;BME280;27623;51.966;4.602;2023-04-24T03:47:08;64286.69;;;10.47;100.00
41636;BME280;27623;51.966;4.602;2023-04-24T03:49:33;64304.34;;;10.44;100.00
41636;BME280;27623;51.966;4.602;2023-04-24T03:51:59;64313.25;;;10.41;100.00
41636;BME280;27623;51.966;4.602;2023-04-24T03:54:24;64286.34;;;10.35;100.00
41636;BME280;27623;51.966;4.602;2023-04-24T03:56:51;64336.03;;;10.38;100.00
41636;BME280;27623;51.966;4.602;2023-04-24T03:59:17;64295.06;;;10.43;100.00
41636;BME280;27623;51.966;4.602;2023-04-24T04:01:42;64282.69;;;10.48;100.00
41636;BME280;27623;51.966;4.602;2023-04-24T04:04:07;64312.53;;;10.52;100.00
41636;BME280;27623;51.966;4.602;2023-04-24T04:06:33;64288.00;;;10.36;100.00
41636;BME280;27623;51.966;4.602;2023-04-24T04:08:59;64287.63;;;10.38;100.00
41636;BME280;27623;51.966;4.602;2023-04-24T04:11:25;64322.75;;;10.38;100.00
41636;BME280;27623;51.966;4.602;2023-04-24T04:13:50;64336.91;;;10.44;100.00
41636;BME280;27623;51.966;4.602;2023-04-24T04:16:16;64263.63;;;10.37;100.00
41636;BME280;27623;51.966;4.602;2023-04-24T04:18:43;64289.09;;;10.37;100.00
41636;BME280;27623;51.966;4.602;2023-04-24T04:21:08;64320.91;;;10.33;100.00
41636;BME280;27623;51.966;4.602;2023-04-24T04:23:33;64309.47;;;10.23;100.00
41636;BME280;27623;51.966;4.602;2023-04-24T04:25:59;64288.72;;;10.25;100.00
41636;BME280;27623;51.966;4.602;2023-04-24T04:28:25;64294.19;;;10.37;100.00
41636;BME280;27623;51.966;4.602;2023-04-24T04:30:50;64282.72;;;10.33;100.00
41636;BME280;27623;51.966;4.602;2023-04-24T04:33:20;64318.91;;;10.41;100.00
41636;BME280;27623;51.966;4.602;2023-04-24T04:35:45;64284.53;;;10.30;100.00
41636;BME280;27623;51.966;4.602;2023-04-24T04:38:14;64318.75;;;10.39;100.00
41636;BME280;27623;51.966;4.602;2023-04-24T04:40:40;64328.38;;;10.31;100.00
41636;BME280;27623;51.966;4.602;2023-04-24T04:43:05;64284.19;;;10.32;100.00
41636;BME280;27623;51.966;4.602;2023-04-24T04:45:31;64312.56;;;10.30;100.00
41636;BME280;27623;51.966;4.602;2023-04-24T04:47:58;64323.28;;;10.31;100.00
41636;BME280;27623;51.966;4.602;2023-04-24T04:50:26;64290.72;;;10.31;100.00
41636;BME280;27623;51.966;4.602;2023-04-24T04:52:51;64291.81;;;10.32;100.00
41636;BME280;27623;51.966;4.602;2023-04-24T04:55:17;64273.81;;;10.37;100.00
41636;BME280;27623;51.966;4.602;2023-04-24T04:57:46;64288.53;;;10.37;100.00
41636;BME280;27623;51.966;4.602;2023-04-24T05:00:12;64283.44;;;10.29;100.00
41636;BME280;27623;51.966;4.602;2023-04-24T05:02:40;64303.28;;;10.29;100.00
41636;BME280;27623;51.966;4.602;2023-04-24T05:05:06;64277.81;;;10.29;100.00
41636;BME280;27623;51.966;4.602;2023-04-24T05:07:32;64281.44;;;10.30;100.00
41636;BME280;27623;51.966;4.602;2023-04-24T05:09:57;64296.00;;;10.27;100.00
41636;BME280;27623;51.966;4.602;2023-04-24T05:12:23;64286.00;;;10.29;100.00
41636;BME280;27623;51.966;4.602;2023-04-24T05:14:48;64240.72;;;10.23;100.00
41636;BME280;27623;51.966;4.602;2023-04-24T05:17:13;64282.38;;;10.14;100.00
41636;BME280;27623;51.966;4.602;2023-04-24T05:19:39;64244.00;;;10.19;100.00
41636;BME280;27623;51.966;4.602;2023-04-24T05:22:04;64268.19;;;10.22;100.00
41636;BME280;27623;51.966;4.602;2023-04-24T05:24:32;64284.91;;;10.28;100.00
41636;BME280;27623;51.966;4.602;2023-04-24T05:26:58;64281.28;;;10.27;100.00
41636;BME280;27623;51.966;4.602;2023-04-24T05:29:24;64250.53;;;10.18;100.00
41636;BME280;27623;51.966;4.602;2023-04-24T05:31:54;64259.09;;;10.16;100.00
41636;BME280;27623;51.966;4.602;2023-04-24T05:34:22;64278.72;;;10.20;100.00
41636;BME280;27623;51.966;4.602;2023-04-24T05:36:50;64290.91;;;10.20;100.00
41636;BME280;27623;51.966;4.602;2023-04-24T05:39:16;64236.72;;;10.10;100.00
41636;BME280;27623;51.966;4.602;2023-04-24T05:41:41;64247.66;;;9.98;100.00
41636;BME280;27623;51.966;4.602;2023-04-24T05:44:07;64249.84;;;9.93;100.00
41636;BME280;27623;51.966;4.602;2023-04-24T05:46:34;64241.50;;;9.97;100.00
41636;BME280;27623;51.966;4.602;2023-04-24T05:49:00;64263.84;;;10.04;100.00
41636;BME280;27623;51.966;4.602;2023-04-24T05:51:25;64258.00;;;10.01;100.00
41636;BME280;27623;51.966;4.602;2023-04-24T05:53:54;64221.66;;;9.98;100.00
41636;BME280;27623;51.966;4.602;2023-04-24T05:56:19;64275.66;;;9.98;100.00
41636;BME280;27623;51.966;4.602;2023-04-24T05:58:47;64259.66;;;10.03;100.00
41636;BME280;27623;51.966;4.602;2023-04-24T06:01:13;64251.69;;;9.97;100.00
41636;BME280;27623;51.966;4.602;2023-04-24T06:03:40;64275.50;;;9.96;100.00
41636;BME280;27623;51.966;4.602;2023-04-24T06:06:06;64257.84;;;9.98;100.00
41636;BME280;27623;51.966;4.602;2023-04-24T06:08:32;64242.56;;;9.98;100.00
41636;BME280;27623;51.966;4.602;2023-04-24T06:11:00;64302.94;;;10.03;100.00
41636;BME280;27623;51.966;4.602;2023-04-24T06:13:25;64242.94;;;9.96;100.00
41636;BME280;27623;51.966;4.602;2023-04-24T06:15:54;64267.31;;;9.95;100.00
41636;BME280;27623;51.966;4.602;2023-04-24T06:18:19;64235.84;;;9.97;100.00
41636;BME280;27623;51.966;4.602;2023-04-24T06:20:45;64277.50;;;9.95;100.00
41636;BME280;27623;51.966;4.602;2023-04-24T06:23:11;64246.56;;;10.05;100.00
41636;BME280;27623;51.966;4.602;2023-04-24T06:25:36;64246.19;;;9.99;100.00
41636;BME280;27623;51.966;4.602;2023-04-24T06:28:02;64250.94;;;9.94;100.00
41636;BME280;27623;51.966;4.602;2023-04-24T06:30:28;64263.13;;;9.94;100.00
41636;BME280;27623;51.966;4.602;2023-04-24T06:32:53;64239.13;;;9.93;100.00
41636;BME280;27623;51.966;4.602;2023-04-24T06:35:19;64240.78;;;9.94;100.00
41636;BME280;27623;51.966;4.602;2023-04-24T06:37:44;64245.69;;;9.92;100.00
41636;BME280;27623;51.966;4.602;2023-04-24T06:40:13;64258.94;;;9.92;100.00
41636;BME280;27623;51.966;4.602;2023-04-24T06:42:38;64251.69;;;9.97;100.00
41636;BME280;27623;51.966;4.602;2023-04-24T06:45:04;64247.84;;;9.94;100.00
41636;BME280;27623;51.966;4.602;2023-04-24T06:47:30;64231.16;;;9.81;100.00
41636;BME280;27623;51.966;4.602;2023-04-24T06:49:55;64256.78;;;9.90;100.00
41636;BME280;27623;51.966;4.602;2023-04-24T06:52:21;64279.50;;;9.95;100.00
41636;BME280;27623;51.966;4.602;2023-04-24T06:54:46;64272.03;;;9.97;100.00
41636;BME280;27623;51.966;4.602;2023-04-24T06:57:12;64281.09;;;10.04;100.00
41636;BME280;27623;51.966;4.602;2023-04-24T06:59:37;64245.47;;;10.04;100.00
41636;BME280;27623;51.966;4.602;2023-04-24T07:02:03;64272.19;;;10.00;100.00
41636;BME280;27623;51.966;4.602;2023-04-24T07:04:29;64270.41;;;9.96;100.00
41636;BME280;27623;51.966;4.602;2023-04-24T07:06:55;64235.69;;;9.87;100.00
41636;BME280;27623;51.966;4.602;2023-04-24T07:09:22;64261.69;;;9.95;100.00
41636;BME280;27623;51.966;4.602;2023-04-24T07:11:49;64249.13;;;9.90;100.00
41636;BME280;27623;51.966;4.602;2023-04-24T07:14:15;64207.50;;;9.92;100.00
41636;BME280;27623;51.966;4.602;2023-04-24T07:16:40;64270.03;;;9.91;100.00
41636;BME280;27623;51.966;4.602;2023-04-24T07:19:05;64236.59;;;9.93;100.00
41636;BME280;27623;51.966;4.602;2023-04-24T07:21:33;64280.59;;;9.89;100.00
41636;BME280;27623;51.966;4.602;2023-04-24T07:23:58;64248.03;;;9.89;100.00
41636;BME280;27623;51.966;4.602;2023-04-24T07:26:29;64234.94;;;9.91;100.00
41636;BME280;27623;51.966;4.602;2023-04-24T07:28:54;64267.09;;;10.00;100.00
41636;BME280;27623;51.966;4.602;2023-04-24T07:31:20;64239.84;;;9.96;100.00
41636;BME280;27623;51.966;4.602;2023-04-24T07:33:46;64239.69;;;9.86;100.00
41636;BME280;27623;51.966;4.602;2023-04-24T07:36:11;64218.59;;;9.97;100.00
41636;BME280;27623;51.966;4.602;2023-04-24T07:38:41;64285.28;;;9.98;100.00
41636;BME280;27623;51.966;4.602;2023-04-24T07:41:07;64248.03;;;9.96;100.00
41636;BME280;27623;51.966;4.602;2023-04-24T07:43:35;64251.28;;;9.99;100.00
41636;BME280;27623;51.966;4.602;2023-04-24T07:46:00;64273.66;;;9.99;100.00
41636;BME280;27623;51.966;4.602;2023-04-24T07:48:26;64263.84;;;9.97;100.00
41636;BME280;27623;51.966;4.602;2023-04-24T07:50:54;64252.59;;;9.96;100.00
41636;BME280;27623;51.966;4.602;2023-04-24T07:53:19;64257.28;;;9.98;100.00
41636;BME280;27623;51.966;4.602;2023-04-24T07:55:45;64230.59;;;9.94;100.00
41636;BME280;27623;51.966;4.602;2023-04-24T07:58:10;64248.19;;;9.99;100.00
41636;BME280;27623;51.966;4.602;2023-04-24T08:00:38;64270.41;;;9.96;100.00
41636;BME280;27623;51.966;4.602;2023-04-24T08:03:04;64277.84;;;10.00;100.00
41636;BME280;27623;51.966;4.602;2023-04-24T08:05:29;64259.69;;;9.95;100.00
41636;BME280;27623;51.966;4.602;2023-04-24T08:07:55;64230.75;;;9.97;100.00
41636;BME280;27623;51.966;4.602;2023-04-24T08:10:22;64280.19;;;9.98;100.00
41636;BME280;27623;51.966;4.602;2023-04-24T08:12:47;64282.56;;;10.03;100.00
41636;BME280;27623;51.966;4.602;2023-04-24T08:15:13;64240.91;;;10.04;100.00
41636;BME280;27623;51.966;4.602;2023-04-24T08:17:38;64265.09;;;10.08;100.00
41636;BME280;27623;51.966;4.602;2023-04-24T08:20:04;64256.00;;;10.02;100.00
41636;BME280;27623;51.966;4.602;2023-04-24T08:22:31;64253.28;;;9.99;100.00
41636;BME280;27623;51.966;4.602;2023-04-24T08:24:57;64228.59;;;9.81;100.00
41636;BME280;27623;51.966;4.602;2023-04-24T08:27:23;64226.41;;;9.79;100.00
41636;BME280;27623;51.966;4.602;2023-04-24T08:29:49;64226.78;;;9.91;100.00
41636;BME280;27623;51.966;4.602;2023-04-24T08:32:15;64278.41;;;9.94;100.00
41636;BME280;27623;51.966;4.602;2023-04-24T08:34:43;64259.66;;;10.03;100.00
41636;BME280;27623;51.966;4.602;2023-04-24T08:37:08;64248.56;;;10.11;100.00
41636;BME280;27623;51.966;4.602;2023-04-24T08:39:33;64285.09;;;10.10;100.00
41636;BME280;27623;51.966;4.602;2023-04-24T08:42:00;64283.47;;;10.22;97.99
41636;BME280;27623;51.966;4.602;2023-04-24T08:44:32;64278.56;;;10.18;96.65
41636;BME280;27623;51.966;4.602;2023-04-24T08:46:57;64279.28;;;10.21;95.38
41636;BME280;27623;51.966;4.602;2023-04-24T08:49:24;64246.56;;;10.12;94.51
41636;BME280;27623;51.966;4.602;2023-04-24T08:51:52;64242.19;;;10.08;93.20
41636;BME280;27623;51.966;4.602;2023-04-24T08:54:21;64248.03;;;9.96;93.67
41636;BME280;27623;51.966;4.602;2023-04-24T08:56:48;64256.19;;;10.04;93.92
41636;BME280;27623;51.966;4.602;2023-04-24T08:59:15;64252.75;;;10.06;94.70
41636;BME280;27623;51.966;4.602;2023-04-24T09:01:41;64243.69;;;9.92;92.51
41636;BME280;27623;51.966;4.602;2023-04-24T09:04:09;64286.38;;;9.99;92.28
41636;BME280;27623;51.966;4.602;2023-04-24T09:06:39;64247.50;;;9.96;90.88
41636;BME280;27623;51.966;4.602;2023-04-24T09:09:04;64233.47;;;10.07;92.06
41636;BME280;27623;51.966;4.602;2023-04-24T09:11:32;64276.75;;;10.07;93.44
41636;BME280;27623;51.966;4.602;2023-04-24T09:13:58;64227.88;;;9.85;93.73
41636;BME280;27623;51.966;4.602;2023-04-24T09:16:25;64211.50;;;9.84;94.94
41636;BME280;27623;51.966;4.602;2023-04-24T09:18:51;64203.69;;;9.88;97.87
41636;BME280;27623;51.966;4.602;2023-04-24T09:21:17;64213.31;;;9.88;100.00
41636;BME280;27623;51.966;4.602;2023-04-24T09:23:45;64240.41;;;9.96;100.00
41636;BME280;27623;51.966;4.602;2023-04-24T09:26:13;64241.69;;;9.86;100.00
41636;BME280;27623;51.966;4.602;2023-04-24T09:28:40;64268.41;;;9.96;100.00
41636;BME280;27623;51.966;4.602;2023-04-24T09:31:13;64242.91;;;10.04;100.00
41636;BME280;27623;51.966;4.602;2023-04-24T09:33:53;64258.19;;;10.04;100.00
41636;BME280;27623;51.966;4.602;2023-04-24T09:36:19;64241.66;;;10.07;100.00
41636;BME280;27623;51.966;4.602;2023-04-24T09:38:44;64322.19;;;10.30;100.00
41636;BME280;27623;51.966;4.602;2023-04-24T09:41:13;64268.34;;;10.32;99.46
41636;BME280;27623;51.966;4.602;2023-04-24T09:43:39;64327.63;;;10.42;97.87
41636;BME280;27623;51.966;4.602;2023-04-24T09:46:06;64305.59;;;10.55;99.63
41636;BME280;27623;51.966;4.602;2023-04-24T09:48:33;64366.91;;;10.64;99.31
41636;BME280;27623;51.966;4.602;2023-04-24T09:51:04;64349.41;;;10.77;96.15
41636;BME280;27623;51.966;4.602;2023-04-24T09:53:31;64323.00;;;10.78;94.98
41636;BME280;27623;51.966;4.602;2023-04-24T09:56:10;64350.47;;;10.85;93.50
41636;BME280;27623;51.966;4.602;2023-04-24T09:58:36;64330.13;;;10.71;92.54
41636;BME280;27623;51.966;4.602;2023-04-24T10:01:02;64340.84;;;10.78;89.60
41636;BME280;27623;51.966;4.602;2023-04-24T10:03:32;64401.66;;;10.80;91.15
41636;BME280;27623;51.966;4.602;2023-04-24T10:06:04;64310.09;;;10.76;93.86
41636;BME280;27623;51.966;4.602;2023-04-24T10:08:36;64355.06;;;10.77;93.09
41636;BME280;27623;51.966;4.602;2023-04-24T10:11:02;64339.41;;;10.72;92.94
41636;BME280;27623;51.966;4.602;2023-04-24T10:13:28;64302.09;;;10.63;92.58
41636;BME280;27623;51.966;4.602;2023-04-24T10:15:54;64309.56;;;10.61;92.53
41636;BME280;27623;51.966;4.602;2023-04-24T10:18:21;64304.31;;;10.58;94.60
41636;BME280;27623;51.966;4.602;2023-04-24T10:20:47;64291.75;;;10.61;92.22
41636;BME280;27623;51.966;4.602;2023-04-24T10:23:12;64322.66;;;10.66;92.54
41636;BME280;27623;51.966;4.602;2023-04-24T10:25:37;64336.13;;;10.76;93.25
41636;BME280;27623;51.966;4.602;2023-04-24T10:28:04;64300.63;;;10.79;91.99
41636;BME280;27623;51.966;4.602;2023-04-24T10:30:32;64336.50;;;10.67;93.39
41636;BME280;27623;51.966;4.602;2023-04-24T10:33:02;64321.75;;;10.67;94.52
41636;BME280;27623;51.966;4.602;2023-04-24T10:35:30;64355.44;;;10.68;93.42
41636;BME280;27623;51.966;4.602;2023-04-24T10:37:59;64317.97;;;10.57;94.27
41636;BME280;27623;51.966;4.602;2023-04-24T10:40:30;64295.06;;;10.43;92.82
41636;BME280;27623;51.966;4.602;2023-04-24T10:42:56;64279.75;;;10.50;93.75
41636;BME280;27623;51.966;4.602;2023-04-24T10:45:23;64318.34;;;10.48;94.41
41636;BME280;27623;51.966;4.602;2023-04-24T10:47:59;64335.44;;;10.59;95.62
41636;BME280;27623;51.966;4.602;2023-04-24T10:50:44;64263.25;;;10.25;96.49
41636;BME280;27623;51.966;4.602;2023-04-24T10:53:17;64288.31;;;10.48;100.00
41636;BME280;27623;51.966;4.602;2023-04-24T10:55:43;64286.91;;;10.28;95.24
41636;BME280;27623;51.966;4.602;2023-04-24T10:58:12;64301.97;;;10.54;95.54
41636;BME280;27623;51.966;4.602;2023-04-24T11:00:43;64317.22;;;10.61;91.96
41636;BME280;27623;51.966;4.602;2023-04-24T11:05:54;64354.28;;;10.88;91.15
41636;BME280;27623;51.966;4.602;2023-04-24T11:08:25;64342.28;;;10.84;91.79
41636;BME280;27623;51.966;4.602;2023-04-24T11:11:11;64310.84;;;10.64;89.99
41636;BME280;27623;51.966;4.602;2023-04-24T11:16:29;64329.03;;;10.77;92.97
41636;BME280;27623;51.966;4.602;2023-04-24T11:21:41;64374.50;;;10.86;87.80
41636;BME280;27623;51.966;4.602;2023-04-24T11:24:29;64381.38;;;11.11;88.77
41636;BME280;27623;51.966;4.602;2023-04-24T11:27:05;64402.66;;;11.31;88.33
41636;BME280;27623;51.966;4.602;2023-04-24T11:34:57;64421.53;;;11.60;81.60
41636;BME280;27623;51.966;4.602;2023-04-24T11:37:25;64478.56;;;11.80;80.46
41636;BME280;27623;51.966;4.602;2023-04-24T11:39:56;64436.44;;;11.77;78.06
41636;BME280;27623;51.966;4.602;2023-04-24T11:42:22;64474.38;;;11.79;77.02
41636;BME280;27623;51.966;4.602;2023-04-24T11:44:50;64447.00;;;11.82;77.60
41636;BME280;27623;51.966;4.602;2023-04-24T11:47:17;64471.63;;;11.76;76.96
41636;BME280;27623;51.966;4.602;2023-04-24T11:49:44;64456.84;;;11.69;75.21
41636;BME280;27623;51.966;4.602;2023-04-24T11:52:10;64442.44;;;11.82;76.39
41636;BME280;27623;51.966;4.602;2023-04-24T11:54:36;64495.28;;;11.93;75.49
41636;BME280;27623;51.966;4.602;2023-04-24T11:57:06;64474.63;;;12.12;75.44
41636;BME280;27623;51.966;4.602;2023-04-24T11:59:37;64535.47;;;12.43;76.19
41636;BME280;27623;51.966;4.602;2023-04-24T12:02:03;64535.09;;;12.45;75.48
41636;BME280;27623;51.966;4.602;2023-04-24T12:04:38;64498.44;;;12.32;76.31
41636;BME280;27623;51.966;4.602;2023-04-24T12:07:04;64540.34;;;12.54;76.43
41636;BME280;27623;51.966;4.602;2023-04-24T12:09:42;64536.28;;;12.69;76.79
41636;BME280;27623;51.966;4.602;2023-04-24T12:12:14;64544.63;;;12.87;74.21
41636;BME280;27623;51.966;4.602;2023-04-24T12:17:08;64571.34;;;12.73;76.02
41636;BME280;27623;51.966;4.602;2023-04-24T12:19:34;64565.72;;;12.66;73.50
41636;BME280;27623;51.966;4.602;2023-04-24T12:22:00;64514.25;;;12.54;73.84
41636;BME280;27623;51.966;4.602;2023-04-24T12:24:26;64503.75;;;12.27;75.91
41636;BME280;27623;51.966;4.602;2023-04-24T12:26:54;64511.84;;;12.11;82.08
41636;BME280;27623;51.966;4.602;2023-04-24T12:29:20;64463.41;;;11.83;82.87
41636;BME280;27623;51.966;4.602;2023-04-24T12:31:46;64389.28;;;11.52;83.18
41636;BME280;27623;51.966;4.602;2023-04-24T12:34:22;64420.50;;;11.38;84.99
41636;BME280;27623;51.966;4.602;2023-04-24T12:36:48;64413.94;;;11.32;87.62
41636;BME280;27623;51.966;4.602;2023-04-24T12:39:18;64367.16;;;11.19;91.55
41636;BME280;27623;51.966;4.602;2023-04-24T12:41:56;64394.13;;;11.18;94.39
41636;BME280;27623;51.966;4.602;2023-04-24T12:44:29;64355.31;;;11.18;94.10
41636;BME280;27623;51.966;4.602;2023-04-24T12:47:02;64397.53;;;11.31;98.83
41636;BME280;27623;51.966;4.602;2023-04-24T12:51:54;64391.47;;;11.47;100.00
41636;BME280;27623;51.966;4.602;2023-04-24T12:54:19;64413.91;;;11.46;99.46
41636;BME280;27623;51.966;4.602;2023-04-24T12:56:45;64425.34;;;11.57;98.84
41636;BME280;27623;51.966;4.602;2023-04-24T12:59:10;64415.88;;;11.53;97.05
41636;BME280;27623;51.966;4.602;2023-04-24T13:01:36;64460.31;;;11.68;94.69
41636;BME280;27623;51.966;4.602;2023-04-24T13:04:01;64440.84;;;11.52;92.14
41636;BME280;27623;51.966;4.602;2023-04-24T13:06:26;64413.69;;;11.58;90.00
41636;BME280;27623;51.966;4.602;2023-04-24T13:08:52;64425.72;;;11.55;91.70
41636;BME280;27623;51.966;4.602;2023-04-24T13:11:20;64403.88;;;11.49;89.07